Time;durP1;ratioP1;P1;durP2;ratioP2;P2;SDS_P1;SDS_P2;PMS_P1;PMS_P2;Temp;Humidity;BMP_temperature;BMP_pressure;BME280_temperature;BME280_humidity;BME280_pressure;Samples;Min_cycle;Max_cycle;Signal;HPM_P1;HPM_P2
2022/04/29 00:00:13;;;;;;;3.88;1.83;;;23.10;45.20;;;;;;5005327;28;20034;-40
2022/04/29 00:02:40;;;;;;;5.60;2.10;;;23.10;45.10;;;;;;5004998;28;20397;-40
2022/04/29 00:05:06;;;;;;;3.55;1.55;;;23.10;45.20;;;;;;5005166;28;20057;-41
2022/04/29 00:07:32;;;;;;;3.42;1.70;;;23.10;45.20;;;;;;5005251;28;20534;-40
2022/04/29 00:09:57;;;;;;;3.60;1.40;;;23.10;45.20;;;;;;5005221;28;20036;-41
2022/04/29 00:12:23;;;;;;;4.57;1.60;;;23.10;45.00;;;;;;5004939;28;20689;-40
2022/04/29 00:14:49;;;;;;;3.58;1.63;;;23.10;45.20;;;;;;5004788;28;20030;-41
2022/04/29 00:17:16;;;;;;;2.80;1.33;;;23.00;44.90;;;;;;5005009;28;20065;-40
2022/04/29 00:19:43;;;;;;;3.50;1.50;;;23.00;45.00;;;;;;5007855;28;20037;-41
2022/04/29 00:22:09;;;;;;;2.60;1.27;;;23.00;45.00;;;;;;5009003;28;20030;-39
2022/04/29 00:24:35;;;;;;;2.83;1.60;;;23.10;45.10;;;;;;5009148;28;20026;-40
2022/04/29 00:27:00;;;;;;;2.83;1.40;;;23.00;44.90;;;;;;5008878;28;20076;-41
2022/04/29 00:29:26;;;;;;;3.88;1.50;;;23.00;44.80;;;;;;5009067;28;20048;-41
2022/04/29 00:31:52;;;;;;;3.30;1.50;;;23.00;44.90;;;;;;5008777;28;20026;-40
2022/04/29 00:34:18;;;;;;;3.42;1.80;;;23.00;44.80;;;;;;5009263;28;20171;-41
2022/04/29 00:36:44;;;;;;;4.82;1.65;;;23.00;44.90;;;;;;5007583;28;20029;-41
2022/04/29 00:39:10;;;;;;;3.78;1.88;;;23.00;45.20;;;;;;5009200;28;20113;-41
2022/04/29 00:41:36;;;;;;;2.42;1.30;;;23.00;44.80;;;;;;5008556;28;20022;-40
2022/04/29 00:44:07;;;;;;;2.42;1.35;;;23.00;44.80;;;;;;5008317;28;20418;-41
2022/04/29 00:46:35;;;;;;;3.03;1.48;;;23.00;44.80;;;;;;4998960;28;20030;-41
2022/04/29 00:49:02;;;;;;;2.92;1.30;;;23.00;44.70;;;;;;4989114;28;20027;-41
2022/04/29 00:51:28;;;;;;;4.28;1.40;;;23.00;44.90;;;;;;4988948;28;20030;-41
2022/04/29 00:53:56;;;;;;;2.85;1.20;;;23.00;44.90;;;;;;4989058;28;20026;-40
2022/04/29 00:56:23;;;;;;;2.33;1.25;;;22.90;44.90;;;;;;4989200;28;20067;-40
2022/04/29 00:58:59;;;;;;;2.88;1.60;;;22.90;44.80;;;;;;5003629;28;20898;-41
2022/04/29 01:01:26;;;;;;;2.65;1.23;;;22.90;44.80;;;;;;5008325;28;20034;-41
2022/04/29 01:03:53;;;;;;;3.20;1.42;;;22.90;44.70;;;;;;5008306;28;20034;-41
2022/04/29 01:06:19;;;;;;;2.88;1.15;;;22.90;44.80;;;;;;5008457;28;20034;-41
2022/04/29 01:08:45;;;;;;;2.75;1.20;;;22.90;44.70;;;;;;5008457;28;20576;-41
2022/04/29 01:11:10;;;;;;;3.13;1.58;;;22.90;44.80;;;;;;5007596;28;20120;-40
2022/04/29 01:13:36;;;;;;;3.28;1.42;;;22.90;44.60;;;;;;5008284;28;20061;-40
2022/04/29 01:16:02;;;;;;;2.78;1.42;;;22.90;44.60;;;;;;5008027;28;20046;-40
2022/04/29 01:18:29;;;;;;;2.10;1.20;;;22.90;44.70;;;;;;5006962;28;20041;-40
2022/04/29 01:21:05;;;;;;;2.90;1.10;;;22.90;44.60;;;;;;5008021;28;20026;-40
2022/04/29 01:23:32;;;;;;;2.92;1.40;;;22.90;44.70;;;;;;5006102;28;20573;-40
2022/04/29 01:25:58;;;;;;;2.15;1.00;;;22.90;44.70;;;;;;5007552;28;20026;-41
2022/04/29 01:28:27;;;;;;;2.80;1.30;;;22.80;44.50;;;;;;5007903;28;20032;-40
2022/04/29 01:30:55;;;;;;;2.42;1.27;;;22.90;44.70;;;;;;5006869;28;20026;-41
2022/04/29 01:33:21;;;;;;;2.75;1.05;;;22.80;44.60;;;;;;5008145;28;20030;-41
2022/04/29 01:35:47;;;;;;;2.35;1.23;;;22.80;44.60;;;;;;5007693;28;20061;-40
2022/04/29 01:38:12;;;;;;;2.45;1.20;;;22.80;44.60;;;;;;5006192;28;20246;-40
2022/04/29 01:40:38;;;;;;;2.40;1.02;;;22.80;44.60;;;;;;5007443;28;20126;-41
2022/04/29 01:43:04;;;;;;;3.10;1.40;;;22.80;44.50;;;;;;5007016;28;20092;-41
2022/04/29 01:45:30;;;;;;;2.88;1.20;;;22.80;44.50;;;;;;5007482;28;20042;-41
2022/04/29 01:47:55;;;;;;;3.08;1.40;;;22.80;44.50;;;;;;4989640;28;20033;-43
2022/04/29 01:50:21;;;;;;;2.45;1.05;;;22.80;44.60;;;;;;4988021;28;20034;-40
2022/04/29 01:52:47;;;;;;;2.20;1.23;;;22.80;44.50;;;;;;4987608;28;20030;-41
2022/04/29 01:55:12;;;;;;;2.80;1.15;;;22.80;44.50;;;;;;4987453;28;20077;-41
2022/04/29 01:57:38;;;;;;;3.17;1.15;;;22.80;44.50;;;;;;4992232;28;20068;-41
2022/04/29 02:00:05;;;;;;;2.28;0.90;;;22.80;44.50;;;;;;5007636;28;20033;-40
2022/04/29 02:02:31;;;;;;;2.35;0.80;;;22.80;44.50;;;;;;5006580;28;20033;-41
2022/04/29 02:04:57;;;;;;;1.83;0.88;;;22.70;44.40;;;;;;5006132;28;20026;-41
2022/04/29 02:07:22;;;;;;;1.85;0.98;;;22.70;44.40;;;;;;5006462;28;20726;-41
2022/04/29 02:09:48;;;;;;;2.30;1.17;;;22.80;44.50;;;;;;5007432;28;20018;-41
2022/04/29 02:12:15;;;;;;;2.38;1.05;;;22.70;44.40;;;;;;5006633;28;20088;-41
2022/04/29 02:14:42;;;;;;;2.38;1.00;;;22.70;44.40;;;;;;4996125;28;20038;-41
2022/04/29 02:17:10;;;;;;;1.92;1.02;;;22.70;44.50;;;;;;4987523;28;20038;-41
2022/04/29 02:19:37;;;;;;;2.45;0.90;;;22.70;44.50;;;;;;5006441;28;20466;-40
2022/04/29 02:22:05;;;;;;;2.28;1.10;;;22.70;45.10;;;;;;5006425;28;20033;-40
2022/04/29 02:24:32;;;;;;;2.55;1.20;;;22.70;44.40;;;;;;5005866;28;20030;-40
2022/04/29 02:26:59;;;;;;;1.98;1.00;;;22.70;44.50;;;;;;5006803;28;20101;-41
2022/04/29 02:29:27;;;;;;;1.95;0.90;;;22.70;44.50;;;;;;5001530;28;20030;-41
2022/04/29 02:31:54;;;;;;;2.25;1.17;;;22.70;44.40;;;;;;5005510;28;20055;-41
2022/04/29 02:34:20;;;;;;;2.28;1.00;;;22.70;44.50;;;;;;5006853;28;20021;-41
2022/04/29 02:36:47;;;;;;;1.65;0.85;;;22.70;44.40;;;;;;5005267;28;20022;-41
2022/04/29 02:39:13;;;;;;;2.38;1.05;;;22.70;44.40;;;;;;5006911;28;20476;-41
2022/04/29 02:41:39;;;;;;;2.42;1.10;;;22.70;44.40;;;;;;5006105;28;20017;-40
2022/04/29 02:44:05;;;;;;;2.78;1.20;;;22.70;44.30;;;;;;5006263;28;20690;-41
2022/04/29 02:46:30;;;;;;;1.45;0.98;;;22.70;44.30;;;;;;5006412;28;20037;-40
2022/04/29 02:48:56;;;;;;;3.10;1.20;;;22.70;44.30;;;;;;5006783;28;20101;-40
2022/04/29 02:51:22;;;;;;;2.28;1.33;;;22.70;44.30;;;;;;5006253;28;20021;-41
2022/04/29 02:53:48;;;;;;;2.65;1.02;;;22.70;44.30;;;;;;5006187;28;20517;-39
2022/04/29 02:56:13;;;;;;;2.17;0.93;;;22.70;44.30;;;;;;5006344;28;20026;-41
2022/04/29 02:58:39;;;;;;;3.08;1.17;;;22.70;44.30;;;;;;5005832;28;20697;-41
2022/04/29 03:01:06;;;;;;;2.83;1.30;;;22.70;44.30;;;;;;5005766;28;20072;-41
2022/04/29 03:03:32;;;;;;;1.65;1.02;;;22.60;44.20;;;;;;5006106;28;20056;-40
2022/04/29 03:05:57;;;;;;;2.67;1.10;;;22.60;44.30;;;;;;5006065;28;20490;-41
2022/04/29 03:08:23;;;;;;;2.05;0.95;;;22.60;44.30;;;;;;5006230;28;20053;-40
2022/04/29 03:10:49;;;;;;;2.60;1.27;;;22.70;44.30;;;;;;5006056;28;20048;-41
2022/04/29 03:13:15;;;;;;;2.38;1.17;;;22.60;44.10;;;;;;5005903;28;20029;-40
2022/04/29 03:15:42;;;;;;;2.38;1.10;;;22.60;44.20;;;;;;5006192;28;20045;-40
2022/04/29 03:18:22;;;;;;;2.22;0.98;;;22.60;44.10;;;;;;5006071;28;20100;-41
2022/04/29 03:20:51;;;;;;;1.92;1.10;;;22.60;44.10;;;;;;5005632;28;20041;-40
2022/04/29 03:23:17;;;;;;;2.53;1.13;;;22.60;44.10;;;;;;5005955;28;20680;-41
2022/04/29 03:25:43;;;;;;;2.03;1.02;;;22.60;44.10;;;;;;5005781;28;20041;-40
2022/04/29 03:28:09;;;;;;;2.67;1.00;;;22.60;44.10;;;;;;5005522;28;20061;-40
2022/04/29 03:30:35;;;;;;;1.63;0.90;;;22.60;44.10;;;;;;5001274;28;20120;-41
2022/04/29 03:33:04;;;;;;;2.00;1.10;;;22.60;44.10;;;;;;5004128;28;20026;-41
2022/04/29 03:35:29;;;;;;;2.47;1.27;;;22.60;44.00;;;;;;5005465;28;20688;-41
2022/04/29 03:37:55;;;;;;;1.92;0.98;;;22.60;44.00;;;;;;5003398;28;20042;-41
2022/04/29 03:40:23;;;;;;;1.75;1.00;;;22.60;44.00;;;;;;5005114;28;20547;-40
2022/04/29 03:42:54;;;;;;;2.30;1.23;;;22.60;44.00;;;;;;5001661;28;20884;-41
2022/04/29 03:45:21;;;;;;;2.00;0.95;;;22.60;44.10;;;;;;5003487;28;20030;-41
2022/04/29 03:47:47;;;;;;;2.70;0.95;;;22.60;44.00;;;;;;5005620;28;20026;-41
2022/04/29 03:50:13;;;;;;;2.17;1.10;;;22.60;44.00;;;;;;5005345;28;20038;-41
2022/04/29 03:52:50;;;;;;;1.52;0.70;;;22.60;44.00;;;;;;5003920;28;20022;-41
2022/04/29 03:55:18;;;;;;;1.75;1.00;;;22.50;44.00;;;;;;5005261;28;20514;-40
2022/04/29 03:57:44;;;;;;;2.28;1.20;;;22.60;44.00;;;;;;5005250;28;20034;-41
2022/04/29 04:00:10;;;;;;;2.03;1.20;;;22.50;44.00;;;;;;5005408;28;20041;-41
2022/04/29 04:02:37;;;;;;;1.83;0.82;;;22.60;44.00;;;;;;5005072;28;20036;-40
2022/04/29 04:05:03;;;;;;;2.30;1.02;;;22.60;44.00;;;;;;5003609;28;20554;-40
2022/04/29 04:07:28;;;;;;;1.75;1.02;;;22.50;43.90;;;;;;5004847;28;20038;-40
2022/04/29 04:09:54;;;;;;;2.67;1.10;;;22.50;43.90;;;;;;5004895;28;20548;-41
2022/04/29 04:12:20;;;;;;;2.17;1.13;;;22.50;43.90;;;;;;5004824;28;20029;-40
2022/04/29 04:14:46;;;;;;;1.88;1.05;;;22.50;43.90;;;;;;5004582;28;20042;-40
2022/04/29 04:17:11;;;;;;;2.55;1.15;;;22.50;44.00;;;;;;5004750;28;20135;-40
2022/04/29 04:19:37;;;;;;;1.70;0.82;;;22.50;44.10;;;;;;5005102;28;20506;-41
2022/04/29 04:22:03;;;;;;;2.15;1.00;;;22.50;44.10;;;;;;5004756;28;20038;-41
2022/04/29 04:24:29;;;;;;;2.08;1.08;;;22.50;44.20;;;;;;5004513;28;20597;-40
2022/04/29 04:26:56;;;;;;;1.80;1.05;;;22.50;44.30;;;;;;5004864;28;20026;-40
2022/04/29 04:29:21;;;;;;;1.73;0.90;;;22.60;44.30;;;;;;5004426;28;20038;-41
2022/04/29 04:31:48;;;;;;;2.25;1.10;;;22.60;44.30;;;;;;4999630;28;20026;-41
2022/04/29 04:36:58;;;;;;;1.85;0.90;;;22.60;44.20;;;;;;4985082;28;20034;-41
2022/04/29 04:39:25;;;;;;;1.95;0.90;;;22.70;44.20;;;;;;4984500;28;20022;-41
2022/04/29 04:41:50;;;;;;;2.00;0.90;;;22.70;44.10;;;;;;4982921;28;20034;-42
2022/04/29 04:44:17;;;;;;;3.28;1.00;;;22.70;44.00;;;;;;4999097;28;20093;-41
2022/04/29 04:46:43;;;;;;;1.70;0.90;;;22.80;43.90;;;;;;5006947;28;20033;-40
2022/04/29 04:49:11;;;;;;;2.42;1.10;;;22.80;43.90;;;;;;5013268;28;20022;-41
2022/04/29 04:51:37;;;;;;;2.35;1.00;;;22.80;43.80;;;;;;5012103;28;20042;-43
2022/04/29 04:54:04;;;;;;;2.42;1.23;;;22.90;43.80;;;;;;5013704;28;20024;-41
2022/04/29 04:56:30;;;;;;;4.15;1.10;;;22.90;43.70;;;;;;5010697;28;20612;-40
2022/04/29 04:58:56;;;;;;;2.45;1.20;;;22.90;43.50;;;;;;5010358;28;20537;-41
2022/04/29 05:01:22;;;;;;;3.95;1.17;;;22.90;43.70;;;;;;5012599;28;20037;-39
2022/04/29 05:03:48;;;;;;;2.38;1.20;;;23.00;43.80;;;;;;5013160;28;20054;-38
2022/04/29 05:06:13;;;;;;;3.58;1.05;;;23.00;44.00;;;;;;5013303;28;20734;-38
2022/04/29 05:08:39;;;;;;;2.63;1.05;;;23.00;43.70;;;;;;5008717;28;20080;-39
2022/04/29 05:11:05;;;;;;;3.08;1.20;;;23.00;43.50;;;;;;5018308;28;20113;-39
2022/04/29 05:13:31;;;;;;;2.03;1.02;;;23.00;43.50;;;;;;5016098;28;20112;-39
2022/04/29 05:15:57;;;;;;;4.60;1.60;;;23.10;43.60;;;;;;5007985;28;20512;-39
2022/04/29 05:18:23;;;;;;;3.88;1.58;;;23.10;43.40;;;;;;5007922;28;20658;-39
2022/04/29 05:20:49;;;;;;;3.20;1.40;;;23.10;43.40;;;;;;5007934;28;20092;-39
2022/04/29 05:23:14;;;;;;;2.58;1.23;;;23.10;43.30;;;;;;5008037;28;20033;-39
2022/04/29 05:25:40;;;;;;;2.97;1.48;;;23.10;43.10;;;;;;5006652;28;20033;-39
2022/04/29 05:28:07;;;;;;;2.25;1.30;;;23.10;43.10;;;;;;5007363;28;20054;-39
2022/04/29 05:30:34;;;;;;;2.83;1.13;;;23.10;43.00;;;;;;5007313;28;20087;-39
2022/04/29 05:33:00;;;;;;;2.17;1.10;;;23.10;43.00;;;;;;5007357;28;20041;-39
2022/04/29 05:35:26;;;;;;;2.15;1.15;;;23.10;43.10;;;;;;5007533;28;20056;-39
2022/04/29 05:37:52;;;;;;;3.35;1.42;;;23.10;43.10;;;;;;5007911;28;20030;-39
2022/04/29 05:43:03;;;;;;;2.47;1.05;;;23.10;43.00;;;;;;5007297;28;20041;-39
2022/04/29 05:45:29;;;;;;;3.50;1.40;;;23.10;42.90;;;;;;5005965;28;20390;-39
2022/04/29 05:47:54;;;;;;;2.67;1.27;;;23.10;43.00;;;;;;5007739;28;20105;-39
2022/04/29 05:50:20;;;;;;;2.17;1.30;;;23.10;42.90;;;;;;5007879;28;20487;-39
2022/04/29 05:52:47;;;;;;;3.05;1.30;;;23.10;42.90;;;;;;5006312;28;20704;-39
2022/04/29 05:55:13;;;;;;;1.77;1.00;;;23.10;42.90;;;;;;5007295;28;20090;-40
2022/04/29 05:57:39;;;;;;;1.83;1.02;;;23.10;42.90;;;;;;5012757;28;20057;-39
2022/04/29 06:00:06;;;;;;;2.30;1.02;;;23.10;42.90;;;;;;5016082;28;20036;-38
2022/04/29 06:02:33;;;;;;;3.05;1.10;;;23.10;43.00;;;;;;5015020;28;20199;-40
2022/04/29 06:05:02;;;;;;;2.47;1.38;;;23.10;43.00;;;;;;5015896;28;20027;-39
2022/04/29 06:07:28;;;;;;;2.63;1.20;;;23.10;43.00;;;;;;5000476;28;20084;-39
2022/04/29 06:09:54;;;;;;;4.10;1.88;;;23.10;43.10;;;;;;4997059;28;20113;-39
2022/04/29 06:12:19;;;;;;;7.60;4.35;;;23.10;43.20;;;;;;5008472;28;20029;-38
2022/04/29 06:14:45;;;;;;;15.70;7.93;;;23.10;43.20;;;;;;5011652;28;20302;-39
2022/04/29 06:17:12;;;;;;;26.63;14.13;;;23.10;43.30;;;;;;5014699;28;20036;-40
2022/04/29 06:19:38;;;;;;;33.15;16.85;;;23.10;43.20;;;;;;5014159;28;20595;-39
2022/04/29 06:22:05;;;;;;;47.70;24.08;;;23.10;43.20;;;;;;5015171;28;20033;-42
2022/04/29 06:24:31;;;;;;;72.88;34.17;;;23.10;43.00;;;;;;5015381;28;20520;-39
2022/04/29 06:26:57;;;;;;;75.40;36.70;;;23.10;42.90;;;;;;5014346;28;20033;-39
2022/04/29 06:29:22;;;;;;;82.07;40.55;;;23.20;42.90;;;;;;5015404;28;20025;-39
2022/04/29 06:31:49;;;;;;;73.90;38.45;;;23.20;42.90;;;;;;5013287;28;20038;-39
2022/04/29 06:34:15;;;;;;;80.25;40.53;;;23.10;42.90;;;;;;5013590;28;20013;-39
2022/04/29 06:36:41;;;;;;;90.82;45.38;;;23.20;42.90;;;;;;5014116;28;20700;-39
2022/04/29 06:39:06;;;;;;;93.97;47.33;;;23.20;43.10;;;;;;5014321;28;20033;-39
2022/04/29 06:41:32;;;;;;;94.93;45.42;;;23.20;43.70;;;;;;5014439;28;20240;-39
2022/04/29 06:43:58;;;;;;;89.45;46.33;;;23.20;43.90;;;;;;5014845;28;20025;-39
2022/04/29 06:46:25;;;;;;;86.55;44.92;;;23.20;44.10;;;;;;5014752;28;20064;-39
2022/04/29 06:48:54;;;;;;;97.93;48.03;;;23.20;44.10;;;;;;5010633;28;20028;-41
2022/04/29 06:51:20;;;;;;;94.43;45.30;;;23.20;44.10;;;;;;4989541;28;20026;-39
2022/04/29 06:53:46;;;;;;;95.43;49.17;;;23.20;45.20;;;;;;4992587;28;20559;-41
2022/04/29 06:56:12;;;;;;;101.25;49.58;;;23.20;45.20;;;;;;4988529;28;20117;-41
2022/04/29 06:58:38;;;;;;;98.75;49.17;;;23.20;45.50;;;;;;4999441;28;20108;-42
2022/04/29 07:01:03;;;;;;;106.57;52.22;;;23.20;45.30;;;;;;4996763;28;20035;-42
2022/04/29 07:03:29;;;;;;;91.15;47.00;;;23.20;45.60;;;;;;5001866;28;20042;-41
2022/04/29 07:05:57;;;;;;;104.57;50.40;;;23.20;44.70;;;;;;4999179;28;20054;-41
2022/04/29 07:08:23;;;;;;;93.78;46.40;;;23.20;45.20;;;;;;4996913;28;20666;-41
2022/04/29 07:10:49;;;;;;;101.20;50.42;;;23.20;45.50;;;;;;4994544;28;20026;-40
2022/04/29 07:13:14;;;;;;;100.78;49.78;;;23.20;45.40;;;;;;5001219;28;20030;-41
2022/04/29 07:15:43;;;;;;;95.05;47.42;;;23.20;45.30;;;;;;4996888;28;20413;-40
2022/04/29 07:18:10;;;;;;;97.63;47.78;;;23.20;45.40;;;;;;4998238;28;20054;-41
2022/04/29 07:20:36;;;;;;;100.22;48.00;;;23.30;45.70;;;;;;5000677;28;20033;-42
2022/04/29 07:23:02;;;;;;;95.88;47.38;;;23.20;45.30;;;;;;4996874;28;20048;-41
2022/04/29 07:25:28;;;;;;;91.75;47.53;;;23.30;45.20;;;;;;5000008;28;20444;-41
2022/04/29 07:27:54;;;;;;;94.70;46.38;;;23.30;45.20;;;;;;5013844;28;20096;-42
2022/04/29 07:30:20;;;;;;;92.88;46.92;;;23.30;45.10;;;;;;4993923;28;20089;-42
2022/04/29 07:32:45;;;;;;;93.57;47.08;;;23.30;44.80;;;;;;5001148;28;20049;-41
2022/04/29 07:43:25;;;;;;;82.20;41.40;;;23.40;44.30;;;;;;4996783;28;20080;-40
2022/04/29 07:45:51;;;;;;;89.22;43.67;;;23.40;44.10;;;;;;4998324;28;20425;-40
2022/04/29 07:48:18;;;;;;;87.22;43.55;;;23.40;44.10;;;;;;4999279;28;20097;-40
2022/04/29 07:50:44;;;;;;;88.32;43.72;;;23.40;44.00;;;;;;5004371;28;20037;-40
2022/04/29 07:53:09;;;;;;;84.13;41.72;;;23.40;44.00;;;;;;5010257;28;20445;-41
2022/04/29 07:55:35;;;;;;;81.05;41.42;;;23.40;44.10;;;;;;5008561;28;20035;-41
2022/04/29 07:58:03;;;;;;;81.75;41.38;;;23.40;44.10;;;;;;5009896;28;20104;-43
2022/04/29 08:00:31;;;;;;;80.05;41.83;;;23.40;44.00;;;;;;5010677;28;20034;-42
2022/04/29 08:03:01;;;;;;;72.50;39.28;;;23.40;44.10;;;;;;5013102;28;20149;-42
2022/04/29 08:05:28;;;;;;;73.82;38.28;;;23.40;44.00;;;;;;5008342;28;20034;-43
2022/04/29 08:07:59;;;;;;;70.10;36.97;;;23.40;43.90;;;;;;5005053;28;20450;-43
2022/04/29 08:10:32;;;;;;;68.40;34.95;;;23.40;43.80;;;;;;5005046;28;20025;-42
2022/04/29 08:12:58;;;;;;;71.80;36.85;;;23.40;43.60;;;;;;5004417;28;20098;-43
2022/04/29 08:15:28;;;;;;;72.47;35.67;;;23.40;43.50;;;;;;5004601;28;20562;-43
2022/04/29 08:17:53;;;;;;;73.88;37.15;;;23.40;43.50;;;;;;5004536;28;20026;-42
2022/04/29 08:20:20;;;;;;;69.00;36.38;;;23.40;43.40;;;;;;5004878;28;20099;-43
2022/04/29 08:22:47;;;;;;;71.63;36.22;;;23.40;43.40;;;;;;5004810;28;20468;-42
2022/04/29 08:25:16;;;;;;;66.35;36.13;;;23.40;44.10;;;;;;5005131;28;20054;-42
2022/04/29 08:27:42;;;;;;;70.78;34.85;;;23.40;43.30;;;;;;5004772;28;20018;-43
2022/04/29 08:30:08;;;;;;;60.08;32.40;;;23.40;43.30;;;;;;5004744;28;20470;-43
2022/04/29 08:32:44;;;;;;;68.25;35.83;;;23.40;43.20;;;;;;5004326;28;20026;-43
2022/04/29 08:35:12;;;;;;;63.20;34.33;;;23.40;43.30;;;;;;5005043;28;20088;-43
2022/04/29 08:37:41;;;;;;;63.58;34.03;;;23.40;43.20;;;;;;5004796;28;20045;-43
2022/04/29 08:40:08;;;;;;;68.53;35.45;;;23.40;43.10;;;;;;5005433;28;20034;-43
2022/04/29 08:42:38;;;;;;;65.38;34.22;;;23.40;43.10;;;;;;5007327;28;20033;-43
2022/04/29 08:45:11;;;;;;;60.58;33.35;;;23.40;43.00;;;;;;5008610;28;20038;-42
2022/04/29 08:47:44;;;;;;;62.92;33.80;;;23.40;43.00;;;;;;5009320;28;20109;-43
2022/04/29 08:50:16;;;;;;;66.93;35.38;;;23.30;43.00;;;;;;5008871;28;20076;-43
2022/04/29 08:52:42;;;;;;;68.78;33.88;;;23.30;42.90;;;;;;5007420;28;20022;-43
2022/04/29 09:00:41;;;;;;;58.72;31.35;;;23.30;42.80;;;;;;5008239;28;20036;-43
2022/04/29 09:03:15;;;;;;;64.60;33.08;;;23.40;42.80;;;;;;5007777;28;20662;-43
2022/04/29 09:05:42;;;;;;;59.00;31.92;;;23.30;42.90;;;;;;5006544;28;20037;-43
2022/04/29 09:08:12;;;;;;;64.53;33.38;;;23.30;42.80;;;;;;5008186;28;20414;-43
2022/04/29 09:10:46;;;;;;;59.65;32.20;;;23.30;42.80;;;;;;5008415;28;20504;-43
2022/04/29 09:13:15;;;;;;;64.95;33.53;;;23.30;42.70;;;;;;5006887;28;20502;-42
2022/04/29 09:16:01;;;;;;;56.78;30.17;;;23.30;42.80;;;;;;5008697;28;20026;-42
2022/04/29 09:18:33;;;;;;;55.15;29.70;;;23.30;42.80;;;;;;5008442;28;20138;-42
2022/04/29 09:21:02;;;;;;;59.63;31.08;;;23.30;42.70;;;;;;5008050;28;20751;-43
2022/04/29 09:23:29;;;;;;;54.45;28.67;;;23.30;42.80;;;;;;5007430;28;20129;-42
2022/04/29 09:25:59;;;;;;;53.40;29.73;;;23.30;42.70;;;;;;5007727;28;20058;-42
2022/04/29 09:28:25;;;;;;;55.40;29.00;;;23.30;42.70;;;;;;5007715;28;20057;-42
2022/04/29 09:30:55;;;;;;;54.47;29.17;;;23.30;42.70;;;;;;5007701;28;20045;-43
2022/04/29 09:33:23;;;;;;;53.72;29.77;;;23.30;42.70;;;;;;5007956;28;20076;-43
2022/04/29 09:35:49;;;;;;;50.92;27.50;;;23.30;42.70;;;;;;5008133;28;20338;-43
2022/04/29 09:41:00;;;;;;;53.47;29.90;;;23.30;42.70;;;;;;5006336;28;20076;-43
2022/04/29 09:43:37;;;;;;;49.28;28.00;;;23.30;42.70;;;;;;5007479;28;20037;-42
2022/04/29 09:46:23;;;;;;;51.88;27.38;;;23.30;42.70;;;;;;5007951;28;20109;-43
2022/04/29 09:49:14;;;;;;;47.47;25.00;;;23.30;42.70;;;;;;5007521;28;20038;-43
2022/04/29 09:51:51;;;;;;;53.40;27.83;;;23.20;42.60;;;;;;5006530;28;20018;-43
2022/04/29 09:54:35;;;;;;;46.20;25.88;;;23.20;42.60;;;;;;5007721;28;20052;-43
2022/04/29 09:57:10;;;;;;;46.85;26.10;;;23.20;42.60;;;;;;5007156;28;20353;-42
2022/04/29 09:59:38;;;;;;;48.33;25.45;;;23.20;42.60;;;;;;5007451;28;20105;-42
2022/04/29 10:02:06;;;;;;;51.17;26.85;;;23.20;42.50;;;;;;5006982;28;20517;-43
2022/04/29 10:04:35;;;;;;;47.10;26.40;;;23.20;42.50;;;;;;5007359;28;20033;-42
2022/04/29 10:07:05;;;;;;;46.67;24.73;;;23.20;42.60;;;;;;5007200;28;20297;-43
2022/04/29 10:09:35;;;;;;;45.47;25.48;;;23.20;42.60;;;;;;5007273;28;20080;-43
2022/04/29 10:12:04;;;;;;;46.72;24.77;;;23.20;42.60;;;;;;5007041;28;20553;-42
2022/04/29 10:14:36;;;;;;;46.60;25.75;;;23.20;42.60;;;;;;5007206;28;20057;-43
2022/04/29 10:22:42;;;;;;;40.63;22.48;;;23.20;42.60;;;;;;5006748;28;20333;-43
2022/04/29 10:25:10;;;;;;;41.80;22.77;;;23.20;42.50;;;;;;5006622;28;20065;-43
2022/04/29 10:27:43;;;;;;;44.45;23.15;;;23.20;42.50;;;;;;5006871;28;20509;-43
2022/04/29 10:30:10;;;;;;;42.42;22.25;;;23.20;42.50;;;;;;5006485;28;20103;-43
2022/04/29 10:33:03;;;;;;;39.38;22.55;;;23.20;42.50;;;;;;5006516;28;20040;-43
2022/04/29 10:35:49;;;;;;;41.08;23.48;;;23.20;42.60;;;;;;5007032;28;20041;-43
2022/04/29 10:38:34;;;;;;;39.80;22.55;;;23.20;42.50;;;;;;4987258;28;20525;-42
2022/04/29 10:41:19;;;;;;;39.50;21.55;;;23.20;42.50;;;;;;4986934;28;20042;-43
2022/04/29 10:43:51;;;;;;;40.00;22.13;;;23.20;43.20;;;;;;4991483;28;20052;-42
2022/04/29 10:46:32;;;;;;;36.83;21.48;;;23.20;42.50;;;;;;5006426;28;20030;-42
2022/04/29 10:49:19;;;;;;;40.28;21.90;;;23.20;42.50;;;;;;5006524;28;20042;-43
2022/04/29 10:51:47;;;;;;;40.80;21.55;;;23.20;42.70;;;;;;5005712;28;20029;-42
2022/04/29 10:54:13;;;;;;;36.53;20.85;;;23.20;42.60;;;;;;5006123;28;20049;-43
2022/04/29 10:56:39;;;;;;;34.45;18.95;;;23.20;42.60;;;;;;5006627;28;20092;-43
2022/04/29 10:59:07;;;;;;;39.33;20.65;;;23.20;42.50;;;;;;5006453;28;20029;-41
2022/04/29 11:01:34;;;;;;;37.03;20.67;;;23.20;42.60;;;;;;5006459;28;20504;-43
2022/04/29 11:04:07;;;;;;;36.03;20.10;;;23.20;42.50;;;;;;5005447;28;20042;-43
2022/04/29 11:06:41;;;;;;;34.72;19.52;;;23.20;42.50;;;;;;5006190;28;20128;-43
2022/04/29 11:09:31;;;;;;;39.97;20.25;;;23.20;42.50;;;;;;5006244;28;20021;-43
2022/04/29 11:11:58;;;;;;;34.47;18.73;;;23.20;42.50;;;;;;5005728;28;20109;-43
2022/04/29 11:14:24;;;;;;;30.50;18.20;;;23.20;42.40;;;;;;5005997;28;20030;-43
2022/04/29 11:16:55;;;;;;;36.08;20.20;;;23.20;42.50;;;;;;5006144;28;20284;-43
2022/04/29 11:19:26;;;;;;;31.45;19.20;;;23.20;42.50;;;;;;5006128;28;20036;-43
2022/04/29 11:24:50;;;;;;;36.60;19.88;;;23.20;42.40;;;;;;5006044;28;20841;-43
2022/04/29 11:27:26;;;;;;;35.95;19.92;;;23.20;42.40;;;;;;5006014;28;20604;-42
2022/04/29 11:29:53;;;;;;;33.72;18.70;;;23.20;42.40;;;;;;5005681;28;20237;-42
2022/04/29 11:32:26;;;;;;;35.92;18.98;;;23.20;42.40;;;;;;5005303;28;20084;-43
2022/04/29 11:34:52;;;;;;;33.08;18.92;;;23.20;42.40;;;;;;5005705;28;20050;-43
2022/04/29 11:37:26;;;;;;;32.72;18.38;;;23.20;42.40;;;;;;5005641;28;20033;-42
2022/04/29 11:39:54;;;;;;;33.10;17.92;;;23.20;42.40;;;;;;5004636;28;20037;-42
2022/04/29 11:42:20;;;;;;;33.95;18.50;;;23.20;42.30;;;;;;5005247;28;20144;-43
2022/04/29 11:44:46;;;;;;;30.13;17.38;;;23.20;42.30;;;;;;5004805;28;20659;-42
2022/04/29 11:47:13;;;;;;;30.15;17.52;;;23.20;42.30;;;;;;5005563;28;20114;-43
2022/04/29 11:49:39;;;;;;;30.02;17.27;;;23.20;42.30;;;;;;5005845;28;20029;-42
2022/04/29 11:52:26;;;;;;;30.30;16.98;;;23.30;42.40;;;;;;5005249;28;20022;-43
2022/04/29 11:54:57;;;;;;;29.02;16.50;;;23.30;42.40;;;;;;5004824;28;20044;-43
2022/04/29 11:57:24;;;;;;;30.80;17.67;;;23.30;42.30;;;;;;5005546;28;20069;-43
2022/04/29 11:59:50;;;;;;;29.25;17.20;;;23.30;42.10;;;;;;5004989;28;20038;-43
2022/04/29 12:02:21;;;;;;;29.42;16.52;;;23.30;42.20;;;;;;5004914;28;20377;-43
2022/04/29 12:04:59;;;;;;;30.83;17.80;;;23.30;42.20;;;;;;5005283;28;20061;-42
2022/04/29 12:07:42;;;;;;;27.60;15.60;;;23.40;42.30;;;;;;5005026;28;20227;-43
2022/04/29 12:10:24;;;;;;;27.08;15.55;;;23.40;42.30;;;;;;5005304;28;20018;-43
2022/04/29 12:13:10;;;;;;;26.33;14.73;;;23.40;42.30;;;;;;5004935;28;20022;-43
2022/04/29 12:15:38;;;;;;;24.95;14.43;;;23.40;42.30;;;;;;5004303;28;20042;-43
2022/04/29 12:18:06;;;;;;;28.00;15.05;;;23.40;42.30;;;;;;5005168;28;20041;-43
2022/04/29 12:20:33;;;;;;;28.60;15.90;;;23.50;42.30;;;;;;5005194;28;20060;-43
2022/04/29 12:23:22;;;;;;;24.77;14.95;;;23.50;42.30;;;;;;5004596;28;20034;-43
2022/04/29 12:25:49;;;;;;;22.77;14.18;;;23.50;42.30;;;;;;5005156;28;20022;-43
2022/04/29 12:28:18;;;;;;;23.15;13.60;;;23.50;42.20;;;;;;5005175;28;20026;-42
2022/04/29 12:36:58;;;;;;;22.90;13.35;;;23.60;42.00;;;;;;5004694;28;20151;-43
2022/04/29 12:39:34;;;;;;;26.00;14.77;;;23.60;42.00;;;;;;5004839;28;20022;-43
2022/04/29 12:42:09;;;;;;;25.85;14.65;;;23.60;41.90;;;;;;5004445;28;20029;-43
2022/04/29 12:47:43;;;;;;;25.10;14.57;;;23.60;41.90;;;;;;5005105;28;20661;-41
2022/04/29 12:50:31;;;;;;;27.45;15.15;;;23.60;41.90;;;;;;5004704;28;20029;-43
2022/04/29 12:53:07;;;;;;;24.70;15.32;;;23.60;41.80;;;;;;5004184;28;20490;-43
2022/04/29 12:55:35;;;;;;;25.42;14.45;;;23.70;41.90;;;;;;5004799;28;20053;-43
2022/04/29 12:58:08;;;;;;;26.75;15.38;;;23.70;42.00;;;;;;5005034;28;20449;-43
2022/04/29 13:00:35;;;;;;;26.70;16.00;;;23.70;42.10;;;;;;5004445;28;20117;-46
2022/04/29 13:03:03;;;;;;;28.98;16.40;;;23.70;42.00;;;;;;5004470;28;20125;-42
2022/04/29 13:05:29;;;;;;;26.75;16.35;;;23.70;42.00;;;;;;5004545;28;20395;-43
2022/04/29 13:07:55;;;;;;;28.38;15.95;;;23.70;42.00;;;;;;5004607;28;20037;-42
2022/04/29 13:10:22;;;;;;;27.88;16.08;;;23.70;41.90;;;;;;5004650;28;20642;-42
2022/04/29 13:12:48;;;;;;;27.75;16.17;;;23.80;41.90;;;;;;5004576;28;20100;-42
2022/04/29 13:15:15;;;;;;;27.30;16.58;;;23.70;41.90;;;;;;5004143;28;20113;-43
2022/04/29 13:17:41;;;;;;;29.35;16.30;;;23.80;41.80;;;;;;5004972;28;20532;-43
2022/04/29 13:20:08;;;;;;;23.73;14.60;;;23.80;41.70;;;;;;5004378;28;20116;-42